aviador You're here:

CYRL Decoded Metar

RED LAKE AIRPORT in ON, CANADA
Report Time2018-01-17 01:00:00
UTC Time2018-01-17 01:17:44
Flight Rules vfr VFR
Wind230° at 13 Gusting to 18 kt
W.Decomp.*RWY 26: 11.1 kt HW 6.7 kt LCW
W.Rank230° ranks 5
Current wind is above 230° avg. (7.0)
Visibility9999 m
Phenomena:N/A
Clouds:N/A
Expected CloudBase > 2,800 ft AGL from Temp-Dew spread
CeilingNone
Temp-13°C (ISA -26)
Dew Point-20°C (56% RH)
AAT-21.3°C
QNH1019 hPa
Density Alt-2,129 ft
Elevation1,257 ft
Report Wrong Elevation
Raw Report
CYRL 170100Z 23013G18KT 15SM SKC M13/M20 A3008 RMK SLP229=

Extra information for CYRL:More info

Metar Taf Metar & Taf Last 4 Metars F.Rules Stats Wind Profile Meteogram Temp Stats Airport Information Weather charts Add Link Nearby VenuesMetar ALERT Operation Metar Decoded Social comments